createdAt,value
2022-08-29T00:01:31.655Z,67.33
2022-08-29T00:04:00.875Z,66.90
2022-08-29T00:06:28.551Z,66.56
2022-08-29T00:08:56.363Z,66.35
2022-08-29T00:11:24.197Z,66.69
2022-08-29T00:13:52.048Z,67.10
2022-08-29T00:16:19.985Z,67.66
2022-08-29T00:18:47.820Z,66.50
2022-08-29T00:21:17.344Z,68.13
2022-08-29T00:23:45.698Z,67.22
2022-08-29T00:26:14.069Z,67.27
2022-08-29T00:28:41.977Z,68.25
2022-08-29T00:31:09.873Z,67.32
2022-08-29T00:33:37.802Z,67.44
2022-08-29T00:36:07.598Z,67.39
2022-08-29T00:38:37.871Z,67.71
2022-08-29T00:41:06.618Z,67.92
2022-08-29T00:43:37.198Z,67.93
2022-08-29T00:46:19.846Z,67.99
2022-08-29T00:48:54.718Z,68.05
2022-08-29T00:51:23.391Z,69.00
2022-08-29T00:53:58.868Z,69.81
2022-08-29T00:56:27.808Z,70.06
2022-08-29T00:59:01.050Z,68.82
2022-08-29T01:01:29.022Z,69.03
2022-08-29T01:03:57.551Z,70.28
2022-08-29T01:06:28.002Z,70.53
2022-08-29T01:08:58.433Z,69.43
2022-08-29T01:11:48.043Z,70.68
2022-08-29T01:14:16.351Z,70.37
2022-08-29T01:16:44.812Z,70.76
2022-08-29T01:19:20.429Z,68.80
2022-08-29T01:21:55.851Z,70.01
2022-08-29T01:24:35.633Z,69.83
2022-08-29T01:27:03.846Z,69.62
2022-08-29T01:29:31.804Z,70.26
2022-08-29T01:31:59.657Z,70.05
2022-08-29T01:34:29.522Z,71.67
2022-08-29T01:36:59.372Z,70.83
2022-08-29T01:39:31.295Z,72.07
2022-08-29T01:42:02.613Z,72.18
2022-08-29T01:44:31.247Z,72.80
2022-08-29T01:47:03.202Z,72.90
2022-08-29T01:49:32.590Z,72.57
2022-08-29T01:52:00.820Z,72.13
2022-08-29T01:54:31.900Z,72.21
2022-08-29T01:57:00.704Z,72.20
2022-08-29T01:59:30.203Z,73.13
2022-08-29T02:02:01.732Z,73.01
2022-08-29T02:04:29.726Z,72.25
2022-08-29T02:06:57.590Z,72.52
2022-08-29T02:09:26.498Z,71.50
2022-08-29T02:11:56.555Z,71.71
2022-08-29T02:14:24.859Z,71.82
2022-08-29T02:16:52.680Z,73.14
2022-08-29T02:19:20.869Z,71.25
2022-08-29T02:21:51.737Z,72.49
2022-08-29T02:24:25.762Z,72.59
2022-08-29T02:26:56.898Z,71.33
2022-08-29T02:29:25.281Z,72.52
2022-08-29T02:31:53.476Z,72.27
2022-08-29T02:34:21.382Z,71.17
2022-08-29T02:36:49.442Z,72.41
2022-08-29T02:39:19.364Z,71.76
2022-08-29T02:41:47.376Z,72.22
2022-08-29T02:44:16.606Z,72.38
2022-08-29T02:46:44.533Z,73.07
2022-08-29T02:49:12.446Z,73.72
2022-08-29T02:51:42.068Z,72.76
2022-08-29T02:54:09.841Z,74.22
2022-08-29T02:56:37.768Z,73.62
2022-08-29T02:59:05.863Z,72.85
2022-08-29T03:01:36.208Z,72.29
2022-08-29T03:04:04.524Z,72.81
2022-08-29T03:06:32.416Z,73.05
2022-08-29T03:09:00.535Z,73.23
2022-08-29T03:11:29.516Z,74.72
2022-08-29T03:13:57.643Z,74.25
2022-08-29T03:16:26.326Z,74.16
2022-08-29T03:18:55.860Z,74.54
2022-08-29T03:21:26.110Z,73.94
2022-08-29T03:23:56.198Z,73.93
2022-08-29T03:26:24.446Z,73.34
2022-08-29T03:28:52.273Z,73.95
2022-08-29T03:31:20.498Z,73.55
2022-08-29T03:33:48.416Z,73.27
2022-08-29T03:36:18.077Z,74.85
2022-08-29T03:38:46.874Z,74.53
2022-08-29T03:41:21.808Z,74.21
2022-08-29T03:43:49.605Z,74.94
2022-08-29T03:46:17.511Z,75.09
2022-08-29T03:48:45.457Z,74.95
2022-08-29T03:51:13.485Z,74.46
2022-08-29T03:53:42.713Z,74.69
2022-08-29T03:56:10.860Z,74.10
2022-08-29T03:58:51.876Z,73.41
2022-08-29T04:01:22.613Z,74.56
2022-08-29T04:03:50.922Z,74.80
2022-08-29T04:06:19.335Z,74.50
2022-08-29T04:08:48.801Z,74.90
2022-08-29T04:11:18.114Z,74.18
2022-08-29T04:13:45.747Z,73.83
2022-08-29T04:16:15.120Z,74.90
2022-08-29T04:18:43.529Z,75.01
2022-08-29T04:21:11.617Z,74.44
2022-08-29T04:23:40.422Z,75.09
2022-08-29T04:26:35.500Z,75.05
2022-08-29T04:29:04.476Z,74.78
2022-08-29T04:31:32.454Z,74.12
2022-08-29T04:34:00.368Z,74.61
2022-08-29T04:36:28.748Z,75.41
2022-08-29T04:38:57.205Z,74.28
2022-08-29T04:41:26.424Z,74.23
2022-08-29T04:43:54.097Z,73.91
2022-08-29T04:46:24.368Z,75.16
2022-08-29T04:48:52.651Z,75.10
2022-08-29T04:51:21.216Z,74.83
2022-08-29T04:53:49.160Z,74.86
2022-08-29T04:56:16.964Z,74.95
2022-08-29T04:58:47.615Z,74.80
2022-08-29T05:01:18.632Z,73.88
2022-08-29T05:03:46.581Z,74.52
2022-08-29T05:06:16.107Z,74.27
2022-08-29T05:08:47.502Z,75.37
2022-08-29T05:11:27.130Z,75.36
2022-08-29T05:13:56.352Z,75.25
2022-08-29T05:16:24.132Z,74.79
2022-08-29T05:18:52.323Z,73.80
2022-08-29T05:21:25.840Z,73.99
2022-08-29T05:23:54.471Z,73.72
2022-08-29T05:26:22.293Z,73.91
2022-08-29T05:28:51.421Z,73.58
2022-08-29T05:31:20.927Z,73.12
2022-08-29T05:33:49.007Z,73.56
2022-08-29T05:36:16.906Z,73.53
2022-08-29T05:38:44.863Z,73.31
2022-08-29T05:41:12.738Z,70.37
2022-08-29T05:43:40.547Z,70.96
2022-08-29T05:46:10.013Z,71.34
2022-08-29T05:48:42.257Z,70.59
2022-08-29T05:51:17.312Z,68.71
2022-08-29T05:53:45.273Z,68.21
2022-08-29T05:56:13.704Z,67.85
2022-08-29T05:58:41.552Z,67.58
2022-08-29T06:01:09.454Z,68.42
2022-08-29T06:03:37.461Z,67.39
2022-08-29T06:06:07.121Z,67.77
2022-08-29T06:08:34.964Z,67.94
2022-08-29T06:11:02.772Z,68.47
2022-08-29T06:13:30.630Z,68.90
2022-08-29T06:15:58.577Z,67.63
2022-08-29T06:18:35.433Z,68.03
2022-08-29T06:21:06.755Z,64.97
2022-08-29T06:23:34.650Z,64.33
2022-08-29T06:26:02.551Z,63.19
2022-08-29T06:28:31.174Z,63.94
2022-08-29T06:31:05.578Z,61.72
2022-08-29T06:33:33.486Z,61.00
2022-08-29T06:36:01.321Z,60.17
2022-08-29T06:38:30.459Z,58.26
2022-08-29T06:40:58.534Z,57.65
2022-08-29T06:43:27.755Z,53.49
2022-08-29T06:45:55.566Z,51.02
2022-08-29T06:48:26.402Z,48.69
2022-08-29T06:50:57.477Z,47.80
2022-08-29T06:53:31.727Z,46.09
2022-08-29T06:56:06.084Z,44.68
2022-08-29T06:58:34.151Z,42.86
2022-08-29T07:01:07.155Z,44.01
2022-08-29T07:03:35.431Z,42.84
2022-08-29T07:06:03.478Z,42.51
2022-08-29T07:08:32.051Z,43.12
2022-08-29T07:10:59.930Z,43.82
2022-08-29T07:13:29.216Z,42.55
2022-08-29T07:15:57.328Z,42.01
2022-08-29T07:18:25.466Z,43.58
2022-08-29T07:20:54.522Z,42.49
2022-08-29T07:23:22.916Z,41.97
2022-08-29T07:25:50.751Z,41.41
2022-08-29T07:28:18.609Z,42.17
2022-08-29T07:30:48.061Z,39.77
2022-08-29T07:33:16.144Z,39.05
2022-08-29T07:35:44.093Z,39.73
2022-08-29T07:38:12.074Z,38.79
2022-08-29T07:40:40.005Z,38.15
2022-08-29T07:43:07.875Z,38.76
2022-08-29T07:45:38.552Z,38.41
2022-08-29T07:48:10.206Z,40.73
2022-08-29T07:50:38.164Z,40.54
2022-08-29T07:53:06.093Z,38.19
2022-08-29T07:55:34.025Z,36.12
2022-08-29T07:58:03.920Z,37.07
2022-08-29T08:00:31.973Z,37.24
2022-08-29T08:02:59.908Z,35.97
2022-08-29T08:05:29.810Z,37.01
2022-08-29T08:08:00.146Z,37.12
2022-08-29T08:10:31.276Z,39.29
2022-08-29T08:12:59.451Z,39.20
2022-08-29T08:15:28.100Z,37.88
2022-08-29T08:17:55.764Z,36.66
2022-08-29T08:20:24.017Z,35.97
2022-08-29T08:22:53.168Z,35.48
2022-08-29T08:25:24.444Z,34.81
2022-08-29T08:27:52.498Z,34.33
2022-08-29T08:30:21.280Z,32.65
2022-08-29T08:32:55.047Z,34.35
2022-08-29T08:35:23.165Z,35.42
2022-08-29T08:37:51.075Z,36.70
2022-08-29T08:40:23.708Z,35.13
2022-08-29T08:42:52.059Z,34.45
2022-08-29T08:45:22.871Z,34.32
2022-08-29T08:47:56.743Z,32.66
2022-08-29T08:50:28.318Z,31.55
2022-08-29T08:52:59.765Z,32.07
2022-08-29T08:55:39.121Z,33.54
2022-08-29T08:58:27.276Z,38.96
2022-08-29T09:01:03.652Z,39.18
2022-08-29T09:03:56.400Z,42.06
2022-08-29T09:06:39.335Z,39.44
2022-08-29T09:09:18.463Z,36.28
2022-08-29T09:11:56.707Z,36.29
2022-08-29T09:14:41.785Z,37.00
2022-08-29T09:17:17.213Z,36.37
2022-08-29T09:19:46.362Z,35.51
2022-08-29T09:22:20.911Z,38.23
2022-08-29T09:24:54.031Z,37.44
2022-08-29T09:27:25.652Z,36.28
2022-08-29T09:30:02.291Z,37.40
2022-08-29T09:32:30.256Z,37.79
2022-08-29T09:35:15.194Z,39.42
2022-08-29T09:37:43.064Z,39.15
2022-08-29T09:40:16.752Z,39.49
2022-08-29T09:43:01.311Z,39.96
2022-08-29T09:45:29.697Z,39.59
2022-08-29T09:48:10.972Z,39.95
2022-08-29T09:50:38.841Z,41.06
2022-08-29T09:53:22.769Z,40.42
2022-08-29T09:55:53.265Z,39.59
2022-08-29T09:58:39.541Z,42.69
2022-08-29T10:01:11.774Z,43.07
2022-08-29T10:03:43.263Z,40.86
2022-08-29T10:06:16.543Z,40.39
2022-08-29T10:08:58.117Z,40.49
2022-08-29T10:11:31.817Z,39.81
2022-08-29T10:14:04.490Z,41.58
2022-08-29T10:16:51.256Z,41.14
2022-08-29T10:19:22.034Z,39.90
2022-08-29T10:21:59.741Z,40.94
2022-08-29T10:24:55.015Z,41.11
2022-08-29T10:27:36.016Z,38.31
2022-08-29T10:30:11.182Z,39.61
2022-08-29T10:33:09.327Z,38.34
2022-08-29T10:35:41.472Z,36.39
2022-08-29T10:38:19.461Z,35.34
2022-08-29T10:40:51.531Z,34.33
2022-08-29T10:43:39.639Z,35.17
2022-08-29T10:46:24.077Z,35.36
2022-08-29T10:49:00.638Z,34.79
2022-08-29T10:51:35.513Z,35.07
2022-08-29T10:54:12.970Z,35.11
2022-08-29T10:56:44.947Z,36.03
2022-08-29T10:59:20.930Z,34.75
2022-08-29T11:01:55.881Z,34.61
2022-08-29T11:04:27.869Z,34.63
2022-08-29T11:07:01.273Z,35.38
2022-08-29T11:09:32.199Z,35.44
2022-08-29T11:12:12.528Z,37.28
2022-08-29T11:14:50.008Z,34.47
2022-08-29T11:17:22.966Z,33.21
2022-08-29T11:20:01.984Z,33.72
2022-08-29T11:22:34.546Z,34.96
2022-08-29T11:25:08.494Z,35.75
2022-08-29T11:27:45.908Z,35.94
2022-08-29T11:30:20.996Z,38.66
2022-08-29T11:33:00.020Z,38.59
2022-08-29T11:35:36.870Z,36.57
2022-08-29T11:38:51.363Z,35.10
2022-08-29T11:41:29.003Z,33.75
2022-08-29T11:44:06.057Z,35.16
2022-08-29T11:46:41.403Z,34.74
2022-08-29T11:49:36.150Z,35.17
2022-08-29T11:52:22.444Z,34.85
2022-08-29T11:55:23.816Z,36.04
2022-08-29T11:57:58.242Z,36.00
2022-08-29T12:00:47.397Z,37.03
2022-08-29T12:03:46.537Z,37.57
2022-08-29T12:06:22.694Z,35.87
2022-08-29T12:09:00.666Z,38.53
2022-08-29T12:12:08.943Z,38.62
2022-08-29T12:14:39.039Z,42.25
2022-08-29T12:17:09.617Z,42.49
2022-08-29T12:19:53.210Z,41.03
2022-08-29T12:23:04.612Z,39.91
2022-08-29T12:25:43.736Z,41.34
2022-08-29T12:28:32.372Z,40.14
2022-08-29T12:31:51.657Z,40.32
2022-08-29T12:34:40.104Z,41.41
2022-08-29T12:37:34.020Z,42.30
2022-08-29T12:40:18.078Z,38.53
2022-08-29T12:42:59.721Z,37.76
2022-08-29T12:45:31.761Z,39.60
2022-08-29T12:48:05.855Z,41.43
2022-08-29T12:50:36.673Z,41.82
2022-08-29T12:53:06.684Z,42.53
2022-08-29T12:55:39.823Z,41.94
2022-08-29T12:58:10.407Z,41.08
2022-08-29T13:00:38.416Z,41.77
2022-08-29T13:03:15.030Z,43.76
2022-08-29T13:05:44.518Z,44.87
2022-08-29T13:08:15.153Z,43.97
2022-08-29T13:10:54.360Z,44.04
2022-08-29T13:13:24.985Z,43.75
2022-08-29T13:15:53.961Z,43.44
2022-08-29T13:18:22.268Z,41.16
2022-08-29T13:21:03.503Z,41.14
2022-08-29T13:23:33.503Z,40.71
2022-08-29T13:26:06.012Z,40.11
2022-08-29T13:28:39.921Z,40.46
2022-08-29T13:31:33.025Z,42.83
2022-08-29T13:34:12.527Z,43.42
2022-08-29T13:36:45.408Z,43.81
2022-08-29T13:39:28.042Z,43.20
2022-08-29T13:42:21.894Z,43.44
2022-08-29T13:45:01.755Z,42.89
2022-08-29T13:47:31.795Z,43.96
2022-08-29T13:50:01.951Z,42.52
2022-08-29T13:52:31.425Z,42.33
2022-08-29T13:55:00.003Z,43.20
2022-08-29T13:57:30.423Z,44.31
2022-08-29T14:00:00.454Z,44.55
2022-08-29T14:02:28.516Z,44.23
2022-08-29T14:04:56.592Z,43.94
2022-08-29T14:07:27.921Z,43.51
2022-08-29T14:09:56.321Z,44.42
2022-08-29T14:12:32.831Z,44.15
2022-08-29T14:15:09.069Z,44.39
2022-08-29T14:17:37.966Z,44.23
2022-08-29T14:20:09.400Z,44.43
2022-08-29T14:22:37.445Z,43.74
2022-08-29T14:25:06.864Z,43.99
2022-08-29T14:27:34.864Z,45.03
2022-08-29T14:30:05.250Z,44.86
2022-08-29T14:32:33.094Z,45.72
2022-08-29T14:35:01.081Z,44.73
2022-08-29T14:37:29.057Z,44.85
2022-08-29T14:39:57.029Z,45.34
2022-08-29T14:42:26.241Z,44.96
2022-08-29T14:44:54.112Z,45.71
2022-08-29T14:47:23.392Z,44.98
2022-08-29T14:49:51.351Z,44.54
2022-08-29T14:52:19.259Z,44.49
2022-08-29T14:54:47.102Z,44.94
2022-08-29T14:57:14.995Z,45.10
2022-08-29T14:59:42.973Z,44.63
2022-08-29T15:02:11.130Z,44.88
2022-08-29T15:04:40.420Z,45.48
2022-08-29T15:07:09.468Z,45.60
2022-08-29T15:09:37.999Z,45.31
2022-08-29T15:12:06.607Z,45.88
2022-08-29T15:14:35.059Z,46.36
2022-08-29T15:17:02.945Z,46.17
2022-08-29T15:20:15.860Z,45.86
2022-08-29T15:22:20.694Z,45.78
2022-08-29T15:24:50.116Z,45.74
2022-08-29T15:27:18.229Z,45.06
2022-08-29T15:29:46.169Z,45.34
2022-08-29T15:32:14.378Z,45.71
2022-08-29T15:34:42.922Z,45.01
2022-08-29T15:37:11.798Z,45.45
2022-08-29T15:39:40.786Z,45.50
2022-08-29T15:42:11.338Z,45.79
2022-08-29T15:44:39.814Z,44.99
2022-08-29T15:47:10.508Z,45.31
2022-08-29T15:49:39.531Z,45.32
2022-08-29T15:52:07.986Z,45.88
2022-08-29T15:54:36.247Z,45.45
2022-08-29T15:57:05.833Z,45.27
2022-08-29T15:59:56.681Z,45.34
2022-08-29T16:02:21.936Z,45.15
2022-08-29T16:04:54.769Z,45.39
2022-08-29T16:07:25.388Z,45.88
2022-08-29T16:09:57.385Z,45.77
2022-08-29T16:12:28.290Z,45.62
2022-08-29T16:15:00.449Z,45.47
2022-08-29T16:17:29.740Z,45.78
2022-08-29T16:19:58.098Z,45.55
2022-08-29T16:22:27.632Z,46.35
2022-08-29T16:24:55.794Z,45.42
2022-08-29T16:27:24.451Z,45.52
2022-08-29T16:29:54.854Z,45.92
2022-08-29T16:32:22.751Z,46.19
2022-08-29T16:34:51.182Z,45.96
2022-08-29T16:37:19.055Z,46.24
2022-08-29T16:39:46.919Z,46.29
2022-08-29T16:42:14.821Z,46.15
2022-08-29T16:44:42.861Z,46.20
2022-08-29T16:47:12.133Z,46.63
2022-08-29T16:49:40.016Z,46.90
2022-08-29T16:52:07.956Z,46.83
2022-08-29T16:54:35.825Z,46.93
2022-08-29T16:57:03.812Z,47.26
2022-08-29T16:59:34.943Z,47.54
2022-08-29T17:02:06.037Z,47.96
2022-08-29T17:04:35.433Z,48.38
2022-08-29T17:07:03.299Z,47.90
2022-08-29T17:09:30.455Z,48.40
2022-08-29T17:11:57.363Z,48.59
2022-08-29T17:14:26.098Z,48.32
2022-08-29T17:16:55.968Z,48.57
2022-08-29T17:19:24.255Z,48.61
2022-08-29T17:21:53.654Z,49.01
2022-08-29T17:24:21.812Z,49.42
2022-08-29T17:26:50.246Z,49.49
2022-08-29T17:29:18.533Z,49.60
2022-08-29T17:31:46.412Z,49.40
2022-08-29T17:34:16.123Z,49.50
2022-08-29T17:36:44.590Z,49.54
2022-08-29T17:39:13.817Z,49.32
2022-08-29T17:41:43.272Z,49.83
2022-08-29T17:44:14.155Z,50.40
2022-08-29T17:46:42.186Z,50.24
2022-08-29T17:49:11.362Z,50.25
2022-08-29T17:51:40.368Z,51.00
2022-08-29T17:54:12.286Z,50.83
2022-08-29T17:56:46.103Z,50.98
2022-08-29T17:59:15.008Z,50.68
2022-08-29T18:01:43.447Z,50.71
2022-08-29T18:04:11.748Z,51.06
2022-08-29T18:06:39.708Z,51.33
2022-08-29T18:09:08.777Z,51.07
2022-08-29T18:11:38.068Z,51.64
2022-08-29T18:14:08.457Z,51.59
2022-08-29T18:16:36.842Z,51.86
2022-08-29T18:19:06.110Z,51.53
2022-08-29T18:21:34.308Z,51.53
2022-08-29T18:24:02.853Z,51.47
2022-08-29T18:26:30.691Z,51.86
2022-08-29T18:28:58.611Z,52.57
2022-08-29T18:31:27.959Z,51.89
2022-08-29T18:34:03.088Z,52.75
2022-08-29T18:36:31.547Z,51.88
2022-08-29T18:38:59.468Z,52.27
2022-08-29T18:41:27.360Z,52.68
2022-08-29T18:43:55.288Z,53.53
2022-08-29T18:46:23.416Z,53.17
2022-08-29T18:48:53.064Z,53.33
2022-08-29T18:51:21.343Z,52.76
2022-08-29T18:53:49.538Z,53.86
2022-08-29T18:56:17.450Z,52.82
2022-08-29T18:58:45.469Z,53.81
2022-08-29T19:01:16.988Z,53.89
2022-08-29T19:03:57.770Z,53.85
2022-08-29T19:06:27.268Z,53.71
2022-08-29T19:08:56.944Z,53.63
2022-08-29T19:11:25.251Z,54.01
2022-08-29T19:13:54.010Z,53.72
2022-08-29T19:16:23.788Z,54.98
2022-08-29T19:18:52.511Z,54.98
2022-08-29T19:21:20.821Z,53.84
2022-08-29T19:23:52.137Z,55.52
2022-08-29T19:26:23.568Z,55.81
2022-08-29T19:28:54.086Z,55.31
2022-08-29T19:31:23.977Z,55.08
2022-08-29T19:33:52.021Z,54.89
2022-08-29T19:36:21.552Z,54.17
2022-08-29T19:38:49.399Z,54.65
2022-08-29T19:41:17.907Z,55.12
2022-08-29T19:43:46.481Z,54.46
2022-08-29T19:46:18.131Z,55.54
2022-08-29T19:48:50.752Z,54.19
2022-08-29T19:51:24.565Z,53.74
2022-08-29T19:53:53.699Z,54.55
2022-08-29T19:56:21.730Z,54.78
2022-08-29T19:58:49.741Z,54.42
2022-08-29T20:01:18.663Z,54.34
2022-08-29T20:03:46.646Z,54.96
2022-08-29T20:06:14.500Z,54.09
2022-08-29T20:08:46.705Z,54.91
2022-08-29T20:11:18.944Z,55.27
2022-08-29T20:13:50.634Z,55.66
2022-08-29T20:16:22.342Z,56.81
2022-08-29T20:18:52.162Z,56.21
2022-08-29T20:21:23.510Z,55.52
2022-08-29T20:23:57.703Z,56.28
2022-08-29T20:26:28.065Z,56.46
2022-08-29T20:28:56.195Z,56.36
2022-08-29T20:31:24.164Z,55.41
2022-08-29T20:33:52.151Z,55.91
2022-08-29T20:36:39.256Z,55.94
2022-08-29T20:39:13.553Z,55.11
2022-08-29T20:41:41.515Z,56.83
2022-08-29T20:44:10.909Z,56.10
2022-08-29T20:46:41.016Z,56.80
2022-08-29T20:49:09.126Z,57.39
2022-08-29T20:51:37.912Z,56.16
2022-08-29T20:54:06.777Z,55.49
2022-08-29T20:56:35.996Z,55.96
2022-08-29T20:59:04.139Z,55.62
2022-08-29T21:01:32.124Z,57.19
2022-08-29T21:04:20.885Z,56.02
2022-08-29T21:06:49.589Z,57.53
2022-08-29T21:09:17.473Z,56.41
2022-08-29T21:11:46.743Z,59.52
2022-08-29T21:14:14.554Z,58.50
2022-08-29T21:16:42.490Z,57.19
2022-08-29T21:19:10.556Z,58.05
2022-08-29T21:21:39.352Z,59.00
2022-08-29T21:24:08.673Z,59.24
2022-08-29T21:26:36.930Z,58.27
2022-08-29T21:29:06.465Z,57.69
2022-08-29T21:31:35.548Z,57.36
2022-08-29T21:34:06.968Z,57.25
2022-08-29T21:36:35.971Z,57.78
2022-08-29T21:39:06.547Z,58.37
2022-08-29T21:41:35.638Z,58.91
2022-08-29T21:44:03.638Z,58.08
2022-08-29T21:46:35.620Z,57.81
2022-08-29T21:49:06.085Z,59.37
2022-08-29T21:51:35.455Z,59.30
2022-08-29T21:54:03.903Z,58.67
2022-08-29T21:56:33.796Z,59.00
2022-08-29T21:59:03.865Z,59.28
2022-08-29T22:01:38.856Z,58.04
2022-08-29T22:04:09.808Z,59.42
2022-08-29T22:06:41.077Z,59.08
2022-08-29T22:09:10.151Z,60.93
2022-08-29T22:11:38.964Z,60.27
2022-08-29T22:14:08.164Z,59.55
2022-08-29T22:16:37.355Z,59.16
2022-08-29T22:19:07.644Z,60.84
2022-08-29T22:21:38.886Z,61.29
2022-08-29T22:24:07.738Z,61.33
2022-08-29T22:26:36.409Z,59.36
2022-08-29T22:29:05.399Z,60.26
2022-08-29T22:31:33.970Z,60.43
2022-08-29T22:34:05.250Z,61.52
2022-08-29T22:36:34.477Z,61.73
2022-08-29T22:39:02.363Z,60.68
2022-08-29T22:41:30.326Z,60.85
2022-08-29T22:44:35.836Z,59.30
2022-08-29T22:46:46.557Z,59.13
2022-08-29T22:49:16.029Z,59.32
2022-08-29T22:51:43.889Z,59.60
2022-08-29T22:54:29.422Z,61.36
2022-08-29T22:56:57.277Z,62.55
2022-08-29T22:59:25.132Z,59.86
2022-08-29T23:01:53.083Z,60.76
2022-08-29T23:04:23.282Z,60.92
2022-08-29T23:06:51.224Z,60.74
2022-08-29T23:09:19.090Z,60.30
2022-08-29T23:11:47.450Z,61.88
2022-08-29T23:14:15.629Z,62.46
2022-08-29T23:16:48.794Z,62.27
2022-08-29T23:19:16.734Z,62.61
2022-08-29T23:21:46.142Z,61.66
2022-08-29T23:24:14.151Z,62.80
2022-08-29T23:26:42.806Z,62.39
2022-08-29T23:29:10.810Z,61.78
2022-08-29T23:31:39.082Z,61.80
2022-08-29T23:34:07.368Z,62.21
2022-08-29T23:36:35.485Z,62.43
2022-08-29T23:39:07.270Z,62.29
2022-08-29T23:41:35.863Z,62.20
2022-08-29T23:44:04.310Z,62.44
2022-08-29T23:46:32.226Z,61.22
2022-08-29T23:49:00.158Z,61.68
2022-08-29T23:51:28.033Z,62.11
2022-08-29T23:53:55.924Z,62.25
2022-08-29T23:56:26.234Z,61.45
2022-08-29T23:58:55.491Z,61.31
